Terminal Aerodrome Forecast
Issued by NWS Cleveland, OH

Home | Current Version | Previous Version | Text Only | Print | Product List | Glossary On
Versions: 1 2 3 4 5 6 7 8 9 10 11 12 13 14 15 16 17 18 19
000
FTUS41 KCLE 292300
TAFYNG
TAF
KYNG 292320Z 3000/3024 21007KT 1 1/2SM -SN BR OVC006
     FM300400 29011KT 2SM -SN BR OVC015
     FM300800 30012KT 4SM -SN OVC015
     FM301100 30012G19KT P6SM OVC015
     FM301300 31012G19KT 1 1/2SM -SN OVC015
     FM301600 32014G21KT P6SM OVC015
     FM302200 31012KT P6SM OVC015=

USA.gov is the U.S. government's official web portal to all federal, state and local government web resources and services.